Aérodrome :
LOGIN :

S'inscrire | Disclaimer

   EN    FR    IT 

 










Légende :    VFR   VFR Marginal   IFR   IFR Intensif   IFR Très Intensif
Visi : 
Plafond : 
>= 8 km
>= 3000ft
5 à 8 km
1000 à 3000 ft
1500m à 5 km
500 à 1000 ft
800 à 1500m
200 à 500 ft
< 800m
< 200 ft
Symboles :   Orages  Brouillard  Fortes neiges  Fortes précipitations  Vent > 20 kt
SIGMETs :   Divers  Orages  Givrage  Turbulence  Onde Orograph.  Cendres Volcan.






- Altitude de l'aérodrome : 412 ft
- Code IATA : ORE


LFOJ - Orleans

DERNIER METAR :
  • 071530Z AUTO 27006KT 9999 FEW042 SCT250 20/10 Q1020 NOSIG

METARs EXPIRÉS :
  • 071500Z AUTO 23007KT 180V250 9999 BKN036 20/11 Q1020 NOSIG
  • 071430Z AUTO 22004KT 160V280 9999 FEW034 SCT240 20/12 Q1021 NOSIG
  • 071400Z AUTO 22005KT 170V260 9999 FEW030 19/12 Q1021 NOSIG
  • 071330Z AUTO 24004KT 180V280 9999 SCT030 BKN250 19/12 Q1021 NOSIG
  • 071300Z AUTO VRB03KT 9999 BKN029 19/12 Q1021 NOSIG

TAF TAF LFOJ
Valide du 07 à 15h jusqu'au 08 à 15h UTC


071400Z 0715/0815 25005KT CAVOK TX20/0715Z TN06/0804Z
PROB30
TEMPO 0804/0807 4000 BR



MET'MAP, la Météo Aéronautique d'un coup d'oeil ! - Copyright ORBIFLY Décembre 2007 - Disclaimer

ORBIFLY MET'MAP TEAM :

Programmation & Développement : Alexandra Zaïnal
Sur une idée originale de : Baudouin d'Aumeries
Soutien technique & logistique : Manuel Goepfert
Assistance : Marc-Olivier Méhu




SOURCES & CREDITS :

   NOAA